메인 페이지
METAR-TAF:

METAR-TAF

공항 :

케르만, 이란

위도: 30-15N, 경도: 056-58E, 고도: 1748m

현재 날씨관측

예보는 44분 전, 09:00시(UTC)에 발표되었습니다.
18kt
온도 27°C
습도 5%
기압 1019 hPa
시정 10km 이상
고도 4000ft 상공 구름 많음

METAR: OIKK 190900Z 27018KT 9999 BKN040 27/M16 Q1019 A3009

시각: 14:14 (09:44 UTC)

예보

예보는 4 시간 14분 전, 05:30시(UTC)에 발표되었습니다.
예보 대상 시간: 19일 06시부터 20일 12시까지 (UTC)
서남서8kt
시정: 7000m
고도 4000ft 상공 구름 조금
고도 10000ft 상공 구름 보통
일시적
19일 10시부터 19일 14시까지 (UTC)
서남서16kt, 순간 최대 풍속 24kt
고도 3000ft 상공 구름 조금, 적란운.
고도 3500ft 상공 구름 보통
고도 10000ft 상공 구름 많음
일시적
19일 20시부터 19일 22시까지 (UTC)
서남서16kt, 순간 최대 풍속 24kt
고도 3000ft 상공 구름 조금, 적란운.
고도 3500ft 상공 구름 보통
고도 10000ft 상공 구름 많음

TAF: OIKK 190530Z 1906/2012 24008KT 7000 FEW040 SCT100 TEMPO 1910/1914 24016G24KT FEW030CB SCT035 BKN100 TEMPO 1920/1922 24016G24KT FEW030CB SCT035 BKN100

4,000개 이상의 공항 관측 자료 및 예보 (METAR 및 TAF 보고).

지도상에서 검색 가능한 기상관측소가 노란 점과 빨간 점으로 표시되어 있습니다.

기상관측소 명을 보려면 표시 위로 마우스를 이동하세요.

날씨 관측과 예보를 보려면 클릭하세요.

지도 변경 : 확대하려면 엑스 표시가 있는 녹색 버튼, 축소하려면 빼기 표시가 있는 녹색 버튼, 다음 페이지의 지도를 보려면 녹색 화살표를 클릭하세요.


METAR-TAF: